createdAt,value
2023-07-03T04:43:58.503Z,97950.45
2023-07-03T04:46:28.081Z,97951.39
2023-07-03T04:49:01.638Z,97947.98
2023-07-03T04:51:32.715Z,97952.64
2023-07-03T04:54:01.042Z,97954.73
2023-07-03T04:56:29.010Z,97954.31
2023-07-03T04:58:56.525Z,97955.73
2023-07-03T05:01:26.480Z,97956.61
2023-07-03T05:03:53.972Z,97960.70
2023-07-03T05:06:21.412Z,97961.90
2023-07-03T05:08:49.055Z,97964.05
2023-07-03T05:11:16.558Z,97965.29
2023-07-03T05:13:48.847Z,97971.33
2023-07-03T05:16:16.327Z,97973.60
2023-07-03T05:18:43.969Z,97971.27
2023-07-03T05:21:12.221Z,97974.70
2023-07-03T05:23:39.659Z,97976.98
2023-07-03T05:26:07.210Z,97981.71
2023-07-03T05:28:37.848Z,97983.83
2023-07-03T05:31:07.795Z,97982.04
2023-07-03T05:33:35.279Z,97985.27
2023-07-03T05:36:03.163Z,97990.65
2023-07-03T05:38:31.230Z,97985.85
2023-07-03T05:40:58.694Z,97988.92
2023-07-03T05:43:28.141Z,97990.47
2023-07-03T05:45:55.752Z,97995.88
2023-07-03T05:48:24.868Z,97999.61
2023-07-03T05:50:52.425Z,97998.58
2023-07-03T05:53:21.388Z,97998.09
2023-07-03T05:55:57.283Z,97999.73
2023-07-03T05:58:29.281Z,98000.84
2023-07-03T06:00:57.145Z,98003.39
2023-07-03T06:03:30.224Z,98009.35
2023-07-03T06:05:58.103Z,98016.44
2023-07-03T06:08:25.572Z,98020.47
2023-07-03T06:10:53.992Z,98023.63
2023-07-03T06:13:21.412Z,98028.52
2023-07-03T06:15:49.362Z,98028.55
2023-07-03T06:18:17.156Z,98032.06
2023-07-03T06:20:44.609Z,98033.27
2023-07-03T06:23:12.132Z,98039.28
2023-07-03T06:25:41.867Z,98048.17
2023-07-03T06:28:09.273Z,98052.19
2023-07-03T06:30:36.692Z,98052.25
2023-07-03T06:33:04.170Z,98051.88
2023-07-03T06:35:34.953Z,98051.42
2023-07-03T06:38:04.438Z,98055.48
2023-07-03T06:40:31.940Z,98054.77
2023-07-03T06:42:59.582Z,98052.30
2023-07-03T06:45:29.435Z,98053.38
2023-07-03T06:47:57.233Z,98052.73
2023-07-03T06:50:30.565Z,98053.71
2023-07-03T06:52:57.988Z,98054.38
2023-07-03T06:55:25.467Z,98054.46
2023-07-03T06:57:53.152Z,98052.98
2023-07-03T07:00:20.916Z,98055.94
2023-07-03T07:02:48.454Z,98057.64
2023-07-03T07:05:16.103Z,98061.52
2023-07-03T07:07:46.429Z,98057.52
2023-07-03T07:10:13.866Z,98054.28
2023-07-03T07:12:41.309Z,98054.90
2023-07-03T07:15:09.086Z,98053.95
2023-07-03T07:17:51.162Z,98053.04
2023-07-03T07:20:19.895Z,98055.55
2023-07-03T07:22:48.974Z,98053.39
2023-07-03T07:25:16.687Z,98056.48
2023-07-03T07:27:44.323Z,98057.11
2023-07-03T07:30:12.491Z,98058.80
2023-07-03T07:32:39.951Z,98057.71
2023-07-03T07:35:09.627Z,98058.59
2023-07-03T07:37:38.327Z,98055.25
2023-07-03T07:40:07.005Z,98055.32
2023-07-03T07:42:34.503Z,98058.60
2023-07-03T07:45:01.966Z,98059.06
2023-07-03T07:47:30.205Z,98058.96
2023-07-03T07:49:59.492Z,98062.55
2023-07-03T07:52:27.537Z,98062.10
2023-07-03T07:54:56.365Z,98060.60
2023-07-03T07:57:24.843Z,98061.63
2023-07-03T07:59:52.241Z,98067.42
2023-07-03T08:02:19.862Z,98065.66
2023-07-03T08:04:47.606Z,98069.02
2023-07-03T08:07:15.346Z,98068.02
2023-07-03T08:09:42.784Z,98065.16
2023-07-03T08:12:10.499Z,98064.70
2023-07-03T08:14:37.881Z,98064.70
2023-07-03T08:17:05.482Z,98068.02
2023-07-03T08:19:32.915Z,98067.05
2023-07-03T08:22:00.510Z,98069.77
2023-07-03T08:24:28.022Z,98070.98
2023-07-03T08:26:55.639Z,98071.94
2023-07-03T08:29:23.041Z,98073.39
2023-07-03T08:31:50.621Z,98074.00
2023-07-03T08:34:18.598Z,98077.11
2023-07-03T08:39:21.624Z,98081.41
2023-07-03T08:41:57.361Z,98083.71
2023-07-03T08:44:24.825Z,98084.68
2023-07-03T08:47:06.071Z,98087.01
2023-07-03T08:49:38.556Z,98087.95
2023-07-03T08:52:06.261Z,98089.59
2023-07-03T08:54:35.688Z,98090.78
2023-07-03T08:57:04.712Z,98088.50
2023-07-03T08:59:32.086Z,98087.16
2023-07-03T09:02:11.135Z,98088.53
2023-07-03T09:04:41.278Z,98085.16
2023-07-03T09:07:30.250Z,98084.98
2023-07-03T09:10:12.951Z,98077.86
2023-07-03T09:12:43.486Z,98080.92
2023-07-03T09:15:25.350Z,98083.36
2023-07-03T09:17:54.309Z,98084.10
2023-07-03T09:20:22.258Z,98080.77
2023-07-03T09:23:07.363Z,98078.34
2023-07-03T09:25:42.154Z,98081.38
2023-07-03T09:28:13.753Z,98080.91
2023-07-03T09:30:41.310Z,98079.58
2023-07-03T09:33:08.966Z,98077.77
2023-07-03T09:35:37.991Z,98075.02
2023-07-03T09:38:06.914Z,98073.13
2023-07-03T09:40:36.660Z,98070.97
2023-07-03T09:43:04.825Z,98067.48
2023-07-03T09:45:36.739Z,98066.14
2023-07-03T09:48:13.658Z,98062.42
2023-07-03T09:50:47.889Z,98060.25
2023-07-03T10:00:52.398Z,98056.90
2023-07-03T10:03:33.702Z,98059.91
2023-07-03T10:08:46.923Z,98053.80
2023-07-03T10:11:14.437Z,98048.70
2023-07-03T10:13:45.681Z,98044.60
2023-07-03T10:16:15.331Z,98044.77
2023-07-03T10:18:49.823Z,98043.80
2023-07-03T10:21:18.829Z,98046.79
2023-07-03T10:23:46.319Z,98045.45
2023-07-03T10:26:26.356Z,98045.27
2023-07-03T10:29:15.053Z,98042.77
2023-07-03T10:32:05.795Z,98037.92
2023-07-03T10:34:45.887Z,98038.73
2023-07-03T10:37:13.820Z,98035.61
2023-07-03T10:39:43.037Z,98027.40
2023-07-03T10:42:19.343Z,98027.48
2023-07-03T10:44:46.794Z,98028.77
2023-07-03T10:47:18.901Z,98029.75
2023-07-03T10:49:46.902Z,98027.23
2023-07-03T10:52:37.636Z,98026.17
2023-07-03T10:55:25.419Z,98024.84
2023-07-03T10:58:04.328Z,98017.61
2023-07-03T11:00:36.042Z,98015.80
2023-07-03T11:03:18.856Z,98011.70
2023-07-03T11:06:02.746Z,98008.71
2023-07-03T11:08:54.017Z,98008.09
2023-07-03T11:11:27.039Z,98008.80
2023-07-03T11:14:24.000Z,98012.83
2023-07-03T11:17:06.830Z,98011.86
2023-07-03T11:19:54.637Z,98007.23
2023-07-03T11:25:12.645Z,98005.61
2023-07-03T11:40:40.795Z,97993.38
2023-07-03T11:43:30.203Z,97996.32
2023-07-03T11:45:57.641Z,97989.60
2023-07-03T11:48:31.365Z,97981.43
2023-07-03T11:51:06.733Z,97977.16
2023-07-03T11:53:38.181Z,97976.41
2023-07-03T11:56:07.195Z,97971.36
2023-07-03T11:58:35.094Z,97963.44
2023-07-03T12:01:21.591Z,97965.31
2023-07-03T12:04:03.706Z,97967.05
2023-07-03T12:06:40.684Z,97969.75
2023-07-03T12:09:20.573Z,97975.65
2023-07-03T12:12:08.698Z,97967.70
2023-07-03T12:14:43.011Z,97963.09
2023-07-03T12:17:32.824Z,97959.39
2023-07-03T12:20:07.779Z,97956.65
2023-07-03T12:22:44.432Z,97955.40
2023-07-03T12:25:18.471Z,97954.41
2023-07-03T12:27:49.292Z,97955.58
2023-07-03T12:30:26.036Z,97952.21
2023-07-03T12:32:54.330Z,97948.84
2023-07-03T12:35:26.545Z,97944.67
2023-07-03T12:37:59.743Z,97941.27
2023-07-03T12:40:27.426Z,97946.77
2023-07-03T12:42:56.864Z,97945.05
2023-07-03T12:45:29.816Z,97941.52
2023-07-03T12:48:04.747Z,97941.52
2023-07-03T12:50:35.367Z,97942.09
2023-07-03T12:53:05.530Z,97940.27
2023-07-03T12:55:34.983Z,97940.01
2023-07-03T12:58:03.201Z,97937.40
2023-07-03T13:00:32.028Z,97935.67
2023-07-03T13:03:05.063Z,97927.23
2023-07-03T13:05:33.735Z,97928.17
2023-07-03T13:08:07.602Z,97928.94
2023-07-03T13:10:35.051Z,97924.33
2023-07-03T13:13:18.093Z,97924.71
2023-07-03T13:15:45.978Z,97919.23
2023-07-03T13:18:13.551Z,97917.02
2023-07-03T13:21:10.511Z,97912.57
2023-07-03T13:23:41.410Z,97911.31
2023-07-03T13:26:14.072Z,97909.55
2023-07-03T13:28:52.492Z,97905.02
2023-07-03T13:31:21.881Z,97906.69
2023-07-03T13:34:16.861Z,97906.20
2023-07-03T13:37:10.513Z,97902.01
2023-07-03T13:39:38.475Z,97902.05
2023-07-03T13:42:06.294Z,97902.17
2023-07-03T13:44:34.675Z,97897.66
2023-07-03T13:47:02.125Z,97898.52
2023-07-03T13:49:30.111Z,97898.93
2023-07-03T13:51:58.612Z,97891.53
2023-07-03T13:54:26.514Z,97889.34
2023-07-03T13:56:54.074Z,97892.65
2023-07-03T13:59:21.532Z,97897.95
2023-07-03T14:01:49.060Z,97892.77
2023-07-03T14:04:16.546Z,97892.41
2023-07-03T14:06:44.050Z,97891.08
2023-07-03T14:09:11.494Z,97891.17
2023-07-03T14:11:38.896Z,97892.28
2023-07-03T14:14:06.516Z,97892.95
2023-07-03T14:16:33.922Z,97890.05
2023-07-03T14:19:04.291Z,97889.20
2023-07-03T14:21:33.436Z,97893.08
2023-07-03T14:24:00.809Z,97889.80
2023-07-03T14:26:28.330Z,97889.30
2023-07-03T14:28:56.123Z,97890.48
2023-07-03T14:31:23.544Z,97891.69
2023-07-03T14:33:51.004Z,97887.25
2023-07-03T14:36:18.465Z,97889.17
2023-07-03T14:38:46.166Z,97894.20
2023-07-03T14:41:14.439Z,97894.20
2023-07-03T14:43:41.782Z,97894.19
2023-07-03T14:46:09.286Z,97890.24
2023-07-03T14:48:36.665Z,97890.75
2023-07-03T14:51:04.311Z,97890.34
2023-07-03T14:53:31.713Z,97889.69
2023-07-03T14:56:01.943Z,97886.58
2023-07-03T14:58:31.594Z,97889.04
2023-07-03T15:01:02.774Z,97888.67
2023-07-03T15:03:30.915Z,97889.31
2023-07-03T15:05:58.782Z,97889.05
2023-07-03T15:08:27.326Z,97889.66
2023-07-03T15:10:54.854Z,97885.83
2023-07-03T15:13:22.319Z,97883.27
2023-07-03T15:15:50.714Z,97883.28
2023-07-03T15:18:18.591Z,97882.26
2023-07-03T15:20:47.426Z,97884.06
2023-07-03T15:23:16.519Z,97884.07
2023-07-03T15:25:44.108Z,97882.87
2023-07-03T15:28:11.524Z,97880.60
2023-07-03T15:30:40.593Z,97879.00
2023-07-03T15:33:08.190Z,97879.19
2023-07-03T15:35:35.857Z,97878.89
2023-07-03T15:38:03.321Z,97879.30
2023-07-03T15:40:30.745Z,97878.59
2023-07-03T15:42:58.175Z,97876.95
2023-07-03T15:45:26.554Z,97875.77
2023-07-03T15:47:54.067Z,97875.70
2023-07-03T15:50:21.572Z,97873.23
2023-07-03T15:52:49.022Z,97878.44
2023-07-03T15:55:17.865Z,97882.29
2023-07-03T15:57:45.291Z,97883.42
2023-07-03T16:00:13.573Z,97886.60
2023-07-03T16:02:41.064Z,97888.92
2023-07-03T16:05:08.585Z,97891.95
2023-07-03T16:07:36.095Z,97889.19
2023-07-03T16:10:03.674Z,97893.39
2023-07-03T16:12:31.099Z,97894.80
2023-07-03T16:14:58.701Z,97894.54
2023-07-03T16:17:26.281Z,97893.58
2023-07-03T16:20:04.976Z,97893.92
2023-07-03T16:22:32.413Z,97893.46
2023-07-03T16:25:00.092Z,97895.66
2023-07-03T16:27:27.689Z,97895.52
2023-07-03T16:29:55.143Z,97901.79
2023-07-03T16:32:22.624Z,97901.71
2023-07-03T16:34:50.221Z,97903.52
2023-07-03T16:37:17.766Z,97905.50
2023-07-03T16:39:45.409Z,97904.70
2023-07-03T16:42:12.807Z,97904.23
2023-07-03T16:44:40.271Z,97903.76
2023-07-03T16:47:07.820Z,97909.11
2023-07-03T16:49:35.402Z,97910.27
2023-07-03T16:52:03.530Z,97913.86
2023-07-03T16:54:30.908Z,97919.39
2023-07-03T16:56:58.402Z,97919.38
2023-07-03T17:01:32.526Z,97923.33
2023-07-03T17:04:01.189Z,97928.69
2023-07-03T17:06:32.305Z,97932.50
2023-07-03T17:09:00.796Z,97935.44
2023-07-03T17:11:28.463Z,97936.64
2023-07-03T17:14:01.059Z,97940.92
2023-07-03T17:16:30.257Z,97943.75
2023-07-03T17:18:57.754Z,97942.52
2023-07-03T17:21:25.198Z,97949.09
2023-07-03T17:24:00.647Z,97949.08
2023-07-03T17:26:28.622Z,97951.52
2023-07-03T17:28:56.521Z,97953.73
2023-07-03T17:31:27.549Z,97954.30
2023-07-03T17:33:55.325Z,97957.05
2023-07-03T17:36:24.261Z,97960.69
2023-07-03T17:38:52.211Z,97961.77
2023-07-03T17:41:20.513Z,97960.66
2023-07-03T17:43:48.424Z,97962.13
2023-07-03T17:46:17.162Z,97963.10
2023-07-03T17:48:45.064Z,97961.48
2023-07-03T17:51:12.721Z,97963.64
2023-07-03T17:53:41.724Z,97963.63
2023-07-03T17:56:09.181Z,97963.30
2023-07-03T17:58:36.636Z,97962.21
2023-07-03T18:01:04.683Z,97963.92
2023-07-03T18:03:33.894Z,97968.48
2023-07-03T18:06:01.898Z,97969.45
2023-07-03T18:08:29.634Z,97972.74
2023-07-03T18:10:57.014Z,97974.20
2023-07-03T18:13:24.483Z,97977.11
2023-07-03T18:15:51.957Z,97975.71
2023-07-03T18:18:22.934Z,97976.92
2023-07-03T18:20:50.394Z,97976.68
2023-07-03T18:23:18.146Z,97976.05
2023-07-03T18:25:48.207Z,97977.02
2023-07-03T18:28:15.710Z,97978.12
2023-07-03T18:30:43.175Z,97978.40
2023-07-03T18:33:10.586Z,97981.55
2023-07-03T18:35:38.127Z,97982.73
2023-07-03T18:38:05.790Z,97983.31
2023-07-03T18:40:33.349Z,97989.27
2023-07-03T18:43:00.775Z,97993.46
2023-07-03T18:45:31.108Z,97996.46
2023-07-03T18:47:58.545Z,97998.39
2023-07-03T18:50:26.491Z,98002.50
2023-07-03T18:52:53.930Z,98004.29
2023-07-03T18:55:22.624Z,98010.19
2023-07-03T18:57:50.508Z,98013.70
2023-07-03T19:00:18.060Z,98014.09
2023-07-03T19:02:46.619Z,98020.34
2023-07-03T19:05:14.522Z,98023.23
2023-07-03T19:07:42.167Z,98023.69
2023-07-03T19:12:41.358Z,98023.86
2023-07-03T19:15:09.476Z,98026.25
2023-07-03T19:17:36.911Z,98029.16
2023-07-03T19:20:04.587Z,98029.30
2023-07-03T19:22:32.505Z,98030.64
2023-07-03T19:25:00.787Z,98031.71
2023-07-03T19:27:28.174Z,98033.14
2023-07-03T19:29:55.519Z,98035.95
2023-07-03T19:32:25.281Z,98037.81
2023-07-03T19:34:55.700Z,98038.04
2023-07-03T19:37:23.255Z,98040.45
2023-07-03T19:39:51.130Z,98044.52
2023-07-03T19:42:18.601Z,98044.09
2023-07-03T19:44:47.118Z,98043.73
2023-07-03T19:47:14.649Z,98049.36
2023-07-03T19:49:42.286Z,98049.75
2023-07-03T19:52:11.989Z,98051.70
2023-07-03T19:54:39.384Z,98053.36
2023-07-03T19:57:06.947Z,98053.06
2023-07-03T19:59:34.367Z,98053.33
2023-07-03T20:02:02.325Z,98052.11
2023-07-03T20:04:30.998Z,98051.55
2023-07-03T20:07:00.055Z,98054.41
2023-07-03T20:09:27.522Z,98057.53
2023-07-03T20:11:55.014Z,98050.29
2023-07-03T20:14:22.822Z,98054.32
2023-07-03T20:16:50.261Z,98057.44
2023-07-03T20:19:26.408Z,98062.41
2023-07-03T20:21:53.829Z,98060.95
2023-07-03T20:24:21.793Z,98061.34
2023-07-03T20:26:49.233Z,98061.42
2023-07-03T20:29:16.623Z,98068.77
2023-07-03T20:31:44.147Z,98073.94
2023-07-03T20:34:11.562Z,98073.83
2023-07-03T20:36:39.339Z,98076.77
2023-07-03T20:39:06.824Z,98072.96
2023-07-03T20:41:34.301Z,98076.77
2023-07-03T20:44:05.826Z,98073.77
2023-07-03T20:46:33.362Z,98076.63
2023-07-03T20:49:01.058Z,98080.66
2023-07-03T20:51:34.354Z,98083.31
2023-07-03T20:54:04.817Z,98084.29
2023-07-03T20:56:37.312Z,98086.91
2023-07-03T20:59:04.912Z,98081.90
2023-07-03T21:01:34.307Z,98081.90
2023-07-03T21:04:04.313Z,98078.46
2023-07-03T21:06:35.776Z,98082.81
2023-07-03T21:09:04.168Z,98086.38
2023-07-03T21:11:32.842Z,98092.69
2023-07-03T21:14:03.876Z,98096.67
2023-07-03T21:16:36.644Z,98096.42
2023-07-03T21:19:04.769Z,98098.30
2023-07-03T21:21:32.936Z,98094.54
2023-07-03T21:24:03.002Z,98092.81
2023-07-03T21:26:31.228Z,98088.23
2023-07-03T21:28:59.113Z,98088.32
2023-07-03T21:31:28.519Z,98088.94
2023-07-03T21:33:58.345Z,98087.02
2023-07-03T21:36:27.525Z,98086.11
2023-07-03T21:38:58.789Z,98087.10
2023-07-03T21:41:32.294Z,98088.63
2023-07-03T21:44:02.220Z,98086.86
2023-07-03T21:46:32.269Z,98088.00
2023-07-03T21:48:59.914Z,98087.14
2023-07-03T21:51:28.384Z,98087.17
2023-07-03T21:53:55.852Z,98087.20
2023-07-03T21:56:28.299Z,98090.16
2023-07-03T21:58:57.861Z,98090.39
2023-07-03T22:01:34.657Z,98097.56
2023-07-03T22:04:03.005Z,98094.55
2023-07-03T22:06:30.457Z,98098.35
2023-07-03T22:08:58.417Z,98098.26
2023-07-03T22:11:26.626Z,98094.98
2023-07-03T22:13:55.359Z,98090.34
2023-07-03T22:16:22.893Z,98089.80
2023-07-03T22:18:50.527Z,98089.34
2023-07-03T22:21:18.920Z,98091.77
2023-07-03T22:23:50.592Z,98091.74
2023-07-03T22:26:18.179Z,98092.44
2023-07-03T22:28:46.176Z,98089.91
2023-07-03T22:31:13.770Z,98095.58
2023-07-03T22:33:42.029Z,98097.70
2023-07-03T22:36:10.390Z,98091.63
2023-07-03T22:38:38.128Z,98090.21
2023-07-03T22:41:05.536Z,98092.36
2023-07-03T22:43:33.072Z,98089.77
2023-07-03T22:46:05.291Z,98091.29
2023-07-03T22:48:33.620Z,98090.31
2023-07-03T22:51:03.866Z,98091.70
2023-07-03T22:53:31.372Z,98091.65
2023-07-03T22:55:58.888Z,98093.13
2023-07-03T22:58:26.265Z,98095.67
2023-07-03T23:00:59.530Z,98098.41
2023-07-03T23:03:27.000Z,98100.95
2023-07-03T23:06:00.368Z,98104.98
2023-07-03T23:08:33.821Z,98104.52
2023-07-03T23:11:10.293Z,98106.61
2023-07-03T23:13:37.826Z,98106.03
2023-07-03T23:16:10.543Z,98110.80
2023-07-03T23:18:40.050Z,98109.05
2023-07-03T23:21:12.740Z,98108.03
2023-07-03T23:23:40.888Z,98107.28
2023-07-03T23:26:12.330Z,98108.73
2023-07-03T23:28:40.937Z,98110.34
2023-07-03T23:31:15.348Z,98111.59
2023-07-03T23:33:51.707Z,98112.42
2023-07-03T23:36:24.003Z,98111.49
2023-07-03T23:38:58.794Z,98112.34
2023-07-03T23:41:26.193Z,98112.56
2023-07-03T23:43:56.170Z,98114.98
2023-07-03T23:46:27.208Z,98115.58
2023-07-03T23:48:54.661Z,98116.90
2023-07-03T23:51:22.106Z,98112.08
2023-07-03T23:53:51.066Z,98115.02
2023-07-03T23:56:19.410Z,98114.06
2023-07-03T23:58:48.012Z,98114.48
